createdAt,value
2017-11-25T00:01:20.443Z,99.98
2017-11-25T00:03:47.970Z,99.75
2017-11-25T00:06:15.517Z,99.71
2017-11-25T00:08:43.075Z,99.67
2017-11-25T00:11:10.616Z,98.44
2017-11-25T00:13:38.190Z,98.74
2017-11-25T00:16:05.723Z,99.13
2017-11-25T00:18:33.240Z,99.37
2017-11-25T00:21:00.992Z,99.65
2017-11-25T00:23:28.511Z,99.88
2017-11-25T00:25:56.039Z,99.90
2017-11-25T00:28:23.638Z,99.80
2017-11-25T00:30:51.153Z,99.70
2017-11-25T00:33:18.676Z,99.70
2017-11-25T00:35:46.421Z,99.78
2017-11-25T00:38:13.947Z,99.85
2017-11-25T00:40:41.473Z,99.85
2017-11-25T00:43:09.036Z,99.80
2017-11-25T00:45:36.722Z,99.70
2017-11-25T00:48:04.241Z,99.68
2017-11-25T00:50:31.762Z,99.79
2017-11-25T00:52:59.355Z,99.69
2017-11-25T00:55:26.873Z,99.71
2017-11-25T00:57:54.390Z,98.16
2017-11-25T01:00:22.144Z,98.65
2017-11-25T01:02:49.661Z,99.15
2017-11-25T01:05:17.178Z,99.47
2017-11-25T01:07:44.760Z,99.47
2017-11-25T01:10:12.273Z,98.80
2017-11-25T01:12:39.792Z,98.10
2017-11-25T01:15:07.372Z,98.37
2017-11-25T01:17:34.899Z,98.60
2017-11-25T01:20:02.413Z,99.00
2017-11-25T01:22:29.965Z,99.13
2017-11-25T01:24:57.534Z,99.87
2017-11-25T01:27:25.068Z,100.00
2017-11-25T01:29:52.583Z,99.52
2017-11-25T01:32:20.158Z,99.40
2017-11-25T01:34:47.717Z,99.44
2017-11-25T01:37:15.251Z,99.66
2017-11-25T01:39:42.821Z,99.60
2017-11-25T01:42:10.339Z,99.60
2017-11-25T01:44:37.873Z,99.58
2017-11-25T01:47:05.635Z,99.69
2017-11-25T01:49:33.171Z,98.69
2017-11-25T01:52:00.688Z,98.88
2017-11-25T01:54:28.254Z,99.34
2017-11-25T01:56:55.790Z,99.52
2017-11-25T01:59:23.345Z,97.67
2017-11-25T02:01:50.907Z,96.89
2017-11-25T02:04:18.840Z,97.27
2017-11-25T02:06:46.381Z,98.35
2017-11-25T02:09:13.930Z,97.54
2017-11-25T02:11:41.675Z,98.29
2017-11-25T02:14:09.220Z,98.78
2017-11-25T02:16:36.761Z,99.35
2017-11-25T02:19:04.344Z,99.68
2017-11-25T02:21:31.881Z,99.78
2017-11-25T02:23:59.634Z,99.85
2017-11-25T02:26:27.169Z,99.86
2017-11-25T02:28:54.694Z,99.42
2017-11-25T02:31:22.466Z,99.65
2017-11-25T02:33:49.989Z,99.75
2017-11-25T02:36:17.558Z,96.97
2017-11-25T02:38:45.273Z,98.05
2017-11-25T02:41:12.814Z,98.69
2017-11-25T02:43:40.363Z,99.06
2017-11-25T02:46:07.960Z,99.27
2017-11-25T02:48:35.498Z,99.68
2017-11-25T02:51:03.046Z,99.66
2017-11-25T02:53:30.643Z,99.51
2017-11-25T02:55:58.190Z,99.63
2017-11-25T02:58:25.725Z,99.65
2017-11-25T03:00:58.131Z,99.44
2017-11-25T03:03:25.661Z,99.45
2017-11-25T03:05:53.220Z,99.68
2017-11-25T03:08:20.813Z,99.69
2017-11-25T03:10:48.365Z,97.65
2017-11-25T03:13:15.927Z,98.56
2017-11-25T03:15:43.483Z,98.58
2017-11-25T03:18:11.014Z,97.48
2017-11-25T03:20:38.725Z,96.87
2017-11-25T03:23:06.245Z,98.16
2017-11-25T03:25:33.781Z,98.82
2017-11-25T03:28:01.335Z,99.17
2017-11-25T03:30:28.867Z,99.28
2017-11-25T03:32:56.595Z,99.41
2017-11-25T03:35:24.135Z,99.24
2017-11-25T03:37:51.672Z,99.16
2017-11-25T03:40:19.254Z,99.12
2017-11-25T03:42:46.792Z,97.42
2017-11-25T03:45:14.304Z,96.95
2017-11-25T03:47:41.869Z,97.35
2017-11-25T03:50:09.385Z,97.58
2017-11-25T03:52:36.907Z,97.74
2017-11-25T03:55:04.469Z,98.42
2017-11-25T03:57:31.995Z,98.29
2017-11-25T03:59:59.583Z,98.22
2017-11-25T04:02:27.114Z,98.30
2017-11-25T04:04:54.629Z,98.57
2017-11-25T04:07:22.411Z,99.44
2017-11-25T04:09:49.938Z,100.00
2017-11-25T04:12:17.462Z,100.00
2017-11-25T04:14:45.054Z,100.00
2017-11-25T04:17:12.779Z,100.00
2017-11-25T04:19:40.320Z,100.00
2017-11-25T04:22:07.886Z,100.00
2017-11-25T04:24:35.440Z,100.00
2017-11-25T04:27:03.199Z,100.00
2017-11-25T04:29:30.751Z,100.00
2017-11-25T04:31:58.270Z,100.00
2017-11-25T04:34:25.997Z,99.80
2017-11-25T04:36:53.528Z,99.31
2017-11-25T04:39:21.081Z,99.09
2017-11-25T04:41:48.640Z,98.99
2017-11-25T04:44:16.161Z,99.15
2017-11-25T04:46:43.725Z,99.36
2017-11-25T04:49:11.260Z,99.30
2017-11-25T04:51:38.823Z,98.91
2017-11-25T04:54:06.379Z,98.77
2017-11-25T04:56:33.924Z,99.35
2017-11-25T04:59:01.493Z,99.52
2017-11-25T05:01:29.213Z,99.28
2017-11-25T05:03:56.786Z,99.02
2017-11-25T05:06:24.322Z,99.17
2017-11-25T05:08:51.897Z,99.94
2017-11-25T05:11:19.434Z,100.00
2017-11-25T05:13:46.969Z,99.87
2017-11-25T05:16:14.525Z,99.77
2017-11-25T05:18:42.055Z,99.83
2017-11-25T05:21:09.645Z,99.72
2017-11-25T05:23:37.213Z,100.00
2017-11-25T05:26:04.758Z,100.00
2017-11-25T05:28:32.470Z,100.00
2017-11-25T05:31:00.009Z,100.00
2017-11-25T05:33:27.542Z,99.78
2017-11-25T05:35:55.126Z,99.55
2017-11-25T05:38:22.661Z,99.43
2017-11-25T05:40:50.201Z,99.46
2017-11-25T05:43:17.777Z,99.59
2017-11-25T05:45:45.310Z,99.96
2017-11-25T05:48:12.834Z,100.00
2017-11-25T05:50:40.570Z,100.00
2017-11-25T05:53:08.110Z,100.00
2017-11-25T05:55:35.650Z,100.00
2017-11-25T05:58:03.202Z,100.00
2017-11-25T06:00:30.729Z,100.00
2017-11-25T06:02:58.331Z,100.00
2017-11-25T06:05:25.853Z,100.00
2017-11-25T06:07:53.390Z,100.00
2017-11-25T06:10:20.937Z,100.00
2017-11-25T06:12:48.454Z,100.00
2017-11-25T06:15:16.193Z,100.00
2017-11-25T06:17:43.723Z,100.00
2017-11-25T06:20:11.259Z,100.00
2017-11-25T06:22:38.839Z,100.00
2017-11-25T06:25:06.363Z,100.00
2017-11-25T06:27:33.917Z,100.00
2017-11-25T06:30:01.490Z,100.00
2017-11-25T06:32:29.030Z,100.00
2017-11-25T06:34:56.578Z,100.00
2017-11-25T06:37:24.253Z,100.00
2017-11-25T06:39:51.798Z,100.00
2017-11-25T06:42:19.347Z,100.00
2017-11-25T06:44:46.943Z,100.00
2017-11-25T06:47:14.647Z,100.00
2017-11-25T06:49:42.178Z,100.00
2017-11-25T06:52:09.734Z,100.00
2017-11-25T06:54:37.259Z,100.00
2017-11-25T06:57:04.820Z,100.00
2017-11-25T06:59:32.347Z,100.00
2017-11-25T07:01:59.911Z,100.00
2017-11-25T07:04:27.442Z,100.00
2017-11-25T07:06:55.025Z,100.00
2017-11-25T07:09:22.566Z,100.00
2017-11-25T07:11:50.148Z,100.00
2017-11-25T07:14:17.827Z,100.00
2017-11-25T07:16:45.382Z,100.00
2017-11-25T07:19:12.926Z,100.00
2017-11-25T07:21:40.666Z,100.00
2017-11-25T07:24:08.218Z,100.00
2017-11-25T07:26:35.753Z,100.00
2017-11-25T07:29:03.417Z,100.00
2017-11-25T07:31:30.949Z,100.00
2017-11-25T07:33:58.484Z,100.00
2017-11-25T07:36:26.608Z,100.00
2017-11-25T07:38:54.146Z,100.00
2017-11-25T07:41:21.690Z,100.00
2017-11-25T07:43:49.273Z,100.00
2017-11-25T07:46:16.812Z,100.00
2017-11-25T07:48:44.366Z,100.00
2017-11-25T07:51:11.953Z,100.00
2017-11-25T07:53:41.663Z,100.00
2017-11-25T07:56:09.194Z,100.00
2017-11-25T07:58:36.745Z,100.00
2017-11-25T08:01:04.286Z,100.00
2017-11-25T08:03:31.851Z,100.00
2017-11-25T08:05:59.391Z,100.00
2017-11-25T08:08:26.961Z,100.00
2017-11-25T08:10:54.489Z,100.00
2017-11-25T08:13:22.046Z,100.00
2017-11-25T08:15:49.621Z,100.00
2017-11-25T08:18:17.154Z,100.00
2017-11-25T08:20:44.686Z,100.00
2017-11-25T08:23:12.285Z,100.00
2017-11-25T08:25:39.834Z,100.00
2017-11-25T08:28:07.372Z,100.00
2017-11-25T08:30:34.932Z,100.00
2017-11-25T08:33:02.479Z,100.00
2017-11-25T08:35:30.064Z,100.00
2017-11-25T08:37:57.590Z,100.00
2017-11-25T08:40:25.119Z,100.00
2017-11-25T08:42:53.367Z,100.00
2017-11-25T08:45:20.906Z,100.00
2017-11-25T08:47:48.442Z,100.00
2017-11-25T08:50:15.990Z,100.00
2017-11-25T08:52:43.528Z,100.00
2017-11-25T08:55:11.079Z,100.00
2017-11-25T08:57:38.611Z,100.00
2017-11-25T09:00:06.166Z,100.00
2017-11-25T09:02:33.701Z,100.00
2017-11-25T09:05:01.389Z,100.00
2017-11-25T09:07:28.922Z,100.00
2017-11-25T09:09:56.447Z,100.00
2017-11-25T09:12:24.210Z,100.00
2017-11-25T09:14:51.768Z,100.00
2017-11-25T09:17:19.303Z,99.13
2017-11-25T09:19:46.870Z,99.43
2017-11-25T09:22:14.420Z,98.18
2017-11-25T09:24:41.969Z,98.01
2017-11-25T09:27:09.509Z,97.75
2017-11-25T09:29:37.080Z,96.96
2017-11-25T09:32:04.618Z,96.33
2017-11-25T09:34:32.134Z,96.61
2017-11-25T09:36:59.819Z,96.17
2017-11-25T09:39:27.343Z,97.32
2017-11-25T09:41:54.869Z,96.55
2017-11-25T09:44:22.419Z,96.81
2017-11-25T09:46:49.967Z,95.65
2017-11-25T09:49:17.626Z,96.06
2017-11-25T09:51:45.172Z,96.38
2017-11-25T09:54:12.698Z,95.67
2017-11-25T09:56:40.285Z,95.72
2017-11-25T09:59:07.823Z,95.43
2017-11-25T10:01:35.337Z,94.84
2017-11-25T10:04:02.891Z,95.38
2017-11-25T10:06:30.475Z,95.76
2017-11-25T10:08:57.999Z,95.38
2017-11-25T10:11:25.536Z,95.53
2017-11-25T10:13:53.225Z,95.31
2017-11-25T10:16:20.738Z,95.00
2017-11-25T10:18:48.260Z,94.66
2017-11-25T10:21:15.823Z,95.89
2017-11-25T10:23:43.407Z,95.68
2017-11-25T10:26:10.979Z,94.90
2017-11-25T10:28:38.502Z,93.71
2017-11-25T10:31:06.018Z,94.85
2017-11-25T10:33:33.565Z,95.16
2017-11-25T10:36:01.138Z,95.39
2017-11-25T10:38:28.661Z,95.98
2017-11-25T10:40:56.223Z,95.37
2017-11-25T10:43:23.772Z,95.90
2017-11-25T10:45:51.310Z,95.81
2017-11-25T10:48:18.866Z,96.31
2017-11-25T10:50:46.440Z,95.39
2017-11-25T10:53:14.009Z,95.71
2017-11-25T10:55:41.578Z,95.92
2017-11-25T10:58:09.110Z,95.80
2017-11-25T11:00:36.789Z,96.51
2017-11-25T11:03:04.300Z,96.15
2017-11-25T11:05:31.821Z,96.15
2017-11-25T11:07:59.362Z,96.33
2017-11-25T11:10:26.891Z,95.77
2017-11-25T11:12:54.478Z,95.19
2017-11-25T11:15:22.018Z,95.58
2017-11-25T11:17:49.542Z,95.44
2017-11-25T11:20:17.087Z,95.18
2017-11-25T11:22:44.679Z,95.49
2017-11-25T11:25:12.219Z,94.74
2017-11-25T11:27:39.738Z,95.16
2017-11-25T11:30:07.473Z,94.92
2017-11-25T11:32:34.999Z,95.53
2017-11-25T11:35:02.521Z,95.28
2017-11-25T11:37:30.080Z,94.71
2017-11-25T11:39:57.602Z,93.55
2017-11-25T11:42:25.341Z,93.42
2017-11-25T11:44:52.866Z,93.60
2017-11-25T11:47:20.399Z,93.65
2017-11-25T11:49:47.937Z,92.51
2017-11-25T11:52:16.559Z,92.48
2017-11-25T11:54:44.109Z,93.01
2017-11-25T11:57:11.660Z,92.56
2017-11-25T11:59:39.229Z,92.47
2017-11-25T12:02:06.757Z,92.09
2017-11-25T12:04:34.286Z,90.82
2017-11-25T12:07:01.980Z,91.01
2017-11-25T12:09:29.492Z,91.11
2017-11-25T12:11:57.019Z,91.20
2017-11-25T12:14:24.557Z,90.43
2017-11-25T12:16:52.160Z,89.89
2017-11-25T12:19:19.697Z,89.86
2017-11-25T12:21:47.214Z,87.82
2017-11-25T12:24:14.801Z,87.69
2017-11-25T12:26:42.332Z,87.51
2017-11-25T12:29:09.841Z,87.91
2017-11-25T12:31:37.378Z,89.23
2017-11-25T12:34:05.095Z,88.99
2017-11-25T12:36:32.605Z,89.75
2017-11-25T12:39:00.146Z,89.86
2017-11-25T12:41:27.814Z,89.94
2017-11-25T12:43:55.363Z,90.27
2017-11-25T12:46:22.916Z,89.87
2017-11-25T12:48:50.581Z,89.60
2017-11-25T12:51:18.127Z,90.08
2017-11-25T12:53:46.693Z,90.11
2017-11-25T12:56:14.298Z,89.92
2017-11-25T12:58:41.827Z,89.66
2017-11-25T13:01:09.353Z,89.33
2017-11-25T13:03:36.906Z,88.38
2017-11-25T13:06:04.417Z,89.18
2017-11-25T13:08:32.133Z,90.38
2017-11-25T13:10:59.654Z,88.83
2017-11-25T13:13:27.173Z,89.63
2017-11-25T13:15:54.733Z,89.24
2017-11-25T13:18:22.245Z,90.55
2017-11-25T13:20:49.757Z,90.02
2017-11-25T13:23:17.329Z,89.41
2017-11-25T13:25:44.841Z,89.05
2017-11-25T13:28:12.368Z,89.13
2017-11-25T13:30:39.913Z,88.69
2017-11-25T13:33:07.440Z,87.89
2017-11-25T13:35:35.107Z,87.80
2017-11-25T13:38:02.642Z,88.43
2017-11-25T13:40:30.166Z,88.15
2017-11-25T13:42:57.725Z,88.81
2017-11-25T13:45:25.285Z,89.39
2017-11-25T13:47:52.814Z,89.04
2017-11-25T13:50:20.348Z,89.12
2017-11-25T13:52:47.927Z,89.86
2017-11-25T13:55:15.442Z,90.00
2017-11-25T13:57:43.002Z,90.22
2017-11-25T14:00:10.543Z,88.36
2017-11-25T14:02:38.086Z,90.21
2017-11-25T14:05:05.653Z,91.58
2017-11-25T14:07:33.190Z,93.33
2017-11-25T14:10:00.754Z,92.86
2017-11-25T14:12:28.330Z,91.61
2017-11-25T14:14:55.875Z,91.02
2017-11-25T14:17:23.395Z,90.65
2017-11-25T14:19:50.938Z,91.23
2017-11-25T14:22:18.498Z,92.27
2017-11-25T14:24:46.026Z,93.70
2017-11-25T14:27:13.562Z,94.02
2017-11-25T14:29:41.227Z,94.70
2017-11-25T14:32:08.733Z,94.35
2017-11-25T14:34:36.248Z,94.45
2017-11-25T14:37:03.822Z,94.79
2017-11-25T14:39:31.330Z,94.71
2017-11-25T14:41:58.849Z,95.02
2017-11-25T14:44:26.413Z,96.04
2017-11-25T14:46:53.929Z,96.29
2017-11-25T14:49:21.454Z,96.56
2017-11-25T14:51:48.986Z,96.46
2017-11-25T14:54:16.642Z,96.33
2017-11-25T14:56:44.153Z,96.37
2017-11-25T14:59:11.661Z,95.96
2017-11-25T15:01:39.254Z,95.65
2017-11-25T15:04:06.773Z,95.85
2017-11-25T15:06:34.295Z,96.17
2017-11-25T15:09:01.835Z,96.55
2017-11-25T15:11:29.398Z,96.72
2017-11-25T15:13:56.923Z,96.41
2017-11-25T15:16:24.441Z,96.28
2017-11-25T15:18:52.205Z,96.43
2017-11-25T15:21:19.749Z,96.24
2017-11-25T15:23:47.266Z,95.73
2017-11-25T15:26:14.811Z,95.68
2017-11-25T15:28:42.395Z,95.57
2017-11-25T15:31:09.933Z,95.82
2017-11-25T15:33:37.678Z,96.09
2017-11-25T15:36:05.235Z,95.99
2017-11-25T15:38:32.781Z,96.24
2017-11-25T15:41:00.539Z,96.57
2017-11-25T15:43:28.069Z,96.20
2017-11-25T15:45:55.577Z,96.56
2017-11-25T15:48:23.134Z,96.84
2017-11-25T15:50:50.692Z,97.27
2017-11-25T15:53:18.278Z,96.82
2017-11-25T15:55:45.809Z,97.06
2017-11-25T15:58:13.334Z,97.55
2017-11-25T16:00:40.940Z,97.46
2017-11-25T16:03:08.461Z,97.60
2017-11-25T16:05:35.976Z,97.52
2017-11-25T16:08:03.539Z,97.26
2017-11-25T16:10:31.080Z,97.24
2017-11-25T16:12:58.589Z,97.47
2017-11-25T16:15:26.155Z,97.58
2017-11-25T16:17:53.666Z,97.21
2017-11-25T16:20:21.203Z,97.44
2017-11-25T16:22:48.870Z,97.58
2017-11-25T16:25:16.393Z,97.69
2017-11-25T16:27:43.919Z,97.73
2017-11-25T16:30:11.513Z,97.65
2017-11-25T16:32:39.046Z,97.96
2017-11-25T16:35:06.568Z,97.80
2017-11-25T16:37:34.166Z,98.02
2017-11-25T16:40:01.690Z,97.82
2017-11-25T16:42:29.205Z,97.87
2017-11-25T16:44:56.922Z,97.62
2017-11-25T16:47:24.438Z,97.75
2017-11-25T16:49:51.971Z,98.20
2017-11-25T16:52:19.550Z,97.42
2017-11-25T16:54:47.064Z,97.23
2017-11-25T16:57:14.599Z,97.30
2017-11-25T16:59:42.148Z,97.33
2017-11-25T17:02:09.688Z,97.17
2017-11-25T17:04:37.216Z,97.16
2017-11-25T17:07:04.757Z,97.39
2017-11-25T17:09:32.278Z,97.07
2017-11-25T17:11:59.866Z,96.85
2017-11-25T17:14:27.396Z,96.57
2017-11-25T17:16:54.911Z,96.83
2017-11-25T17:19:22.479Z,96.80
2017-11-25T17:21:49.993Z,96.90
2017-11-25T17:24:17.507Z,96.82
2017-11-25T17:26:45.047Z,96.41
2017-11-25T17:29:12.622Z,96.56
2017-11-25T17:31:40.143Z,96.74
2017-11-25T17:34:07.674Z,96.58
2017-11-25T17:36:35.214Z,96.59
2017-11-25T17:39:02.730Z,96.54
2017-11-25T17:41:30.302Z,96.36
2017-11-25T17:43:57.825Z,96.54
2017-11-25T17:46:25.393Z,95.59
2017-11-25T17:48:52.916Z,95.56
2017-11-25T17:51:20.420Z,95.86
2017-11-25T17:53:47.957Z,95.82
2017-11-25T17:56:15.470Z,95.53
2017-11-25T17:58:43.027Z,95.61
2017-11-25T18:01:10.551Z,95.84
2017-11-25T18:03:38.101Z,96.00
2017-11-25T18:06:05.618Z,95.94
2017-11-25T18:08:33.206Z,96.23
2017-11-25T18:11:00.725Z,96.33
2017-11-25T18:13:28.278Z,96.15
2017-11-25T18:15:55.862Z,96.16
2017-11-25T18:18:23.391Z,96.15
2017-11-25T18:20:50.920Z,96.15
2017-11-25T18:23:18.466Z,96.16
2017-11-25T18:25:46.197Z,95.81
2017-11-25T18:28:13.726Z,96.35
2017-11-25T18:30:41.251Z,95.86
2017-11-25T18:33:08.792Z,96.12
2017-11-25T18:35:36.316Z,96.13
2017-11-25T18:38:03.882Z,96.19
2017-11-25T18:40:31.421Z,96.69
2017-11-25T18:42:59.090Z,96.81
2017-11-25T18:45:26.626Z,96.75
2017-11-25T18:47:54.158Z,96.72
2017-11-25T18:50:21.689Z,96.47
2017-11-25T18:52:49.244Z,96.62
2017-11-25T18:55:16.754Z,96.80
2017-11-25T18:57:44.283Z,96.41
2017-11-25T19:00:11.863Z,96.32
2017-11-25T19:02:39.425Z,96.63
2017-11-25T19:05:06.952Z,96.77
2017-11-25T19:07:34.475Z,96.58
2017-11-25T19:10:02.018Z,97.06
2017-11-25T19:12:29.673Z,96.98
2017-11-25T19:14:57.180Z,97.25
2017-11-25T19:17:24.693Z,96.63
2017-11-25T19:19:52.234Z,96.44
2017-11-25T19:22:19.758Z,96.78
2017-11-25T19:24:47.302Z,96.74
2017-11-25T19:27:14.821Z,96.46
2017-11-25T19:29:42.561Z,96.46
2017-11-25T19:32:10.079Z,96.46
2017-11-25T19:34:37.593Z,96.18
2017-11-25T19:37:05.146Z,96.15
2017-11-25T19:39:32.789Z,96.02
2017-11-25T19:42:00.307Z,95.90
2017-11-25T19:44:27.850Z,96.33
2017-11-25T19:46:55.548Z,95.46
2017-11-25T19:49:23.079Z,95.87
2017-11-25T19:51:50.597Z,95.03
2017-11-25T19:54:18.294Z,95.32
2017-11-25T19:56:45.842Z,95.00
2017-11-25T19:59:13.372Z,95.19
2017-11-25T20:01:40.909Z,95.33
2017-11-25T20:04:08.424Z,95.26
2017-11-25T20:06:36.007Z,95.40
2017-11-25T20:09:03.559Z,95.61
2017-11-25T20:11:31.082Z,95.39
2017-11-25T20:13:58.664Z,95.46
2017-11-25T20:16:26.186Z,95.51
2017-11-25T20:18:53.705Z,95.62
2017-11-25T20:21:21.280Z,95.71
2017-11-25T20:23:48.803Z,95.84
2017-11-25T20:26:16.331Z,95.93
2017-11-25T20:28:44.013Z,96.08
2017-11-25T20:31:11.534Z,96.18
2017-11-25T20:33:39.055Z,96.00
2017-11-25T20:36:06.601Z,96.19
2017-11-25T20:38:34.146Z,96.68
2017-11-25T20:41:01.702Z,96.55
2017-11-25T20:43:29.233Z,96.18
2017-11-25T20:45:56.785Z,96.63
2017-11-25T20:48:24.297Z,96.73
2017-11-25T20:50:51.827Z,96.82
2017-11-25T20:53:19.415Z,96.54
2017-11-25T20:55:46.937Z,96.65
2017-11-25T20:58:14.440Z,96.86
2017-11-25T21:00:42.163Z,96.89
2017-11-25T21:03:09.682Z,96.92
2017-11-25T21:05:37.198Z,97.21
2017-11-25T21:08:04.759Z,97.07
2017-11-25T21:10:32.283Z,96.94
2017-11-25T21:12:59.803Z,97.47
2017-11-25T21:15:27.373Z,96.97
2017-11-25T21:17:54.896Z,97.60
2017-11-25T21:20:22.427Z,97.51
2017-11-25T21:22:50.232Z,97.79
2017-11-25T21:25:17.757Z,97.42
2017-11-25T21:27:45.282Z,97.94
2017-11-25T21:30:12.839Z,97.92
2017-11-25T21:32:40.376Z,98.00
2017-11-25T21:35:07.910Z,97.76
2017-11-25T21:37:35.462Z,97.63
2017-11-25T21:40:02.988Z,97.19
2017-11-25T21:42:30.542Z,97.33
2017-11-25T21:44:58.059Z,96.99
2017-11-25T21:47:25.594Z,96.76
2017-11-25T21:49:53.178Z,97.11
2017-11-25T21:52:20.701Z,97.28
2017-11-25T21:54:48.220Z,97.25
2017-11-25T21:57:15.937Z,97.15
2017-11-25T21:59:43.459Z,97.37
2017-11-25T22:02:10.977Z,97.59
2017-11-25T22:04:38.545Z,97.37
2017-11-25T22:07:06.071Z,97.38
2017-11-25T22:09:33.595Z,97.42
2017-11-25T22:12:01.142Z,97.77
2017-11-25T22:14:28.691Z,97.49
2017-11-25T22:16:56.206Z,97.45
2017-11-25T22:19:23.745Z,97.48
2017-11-25T22:21:51.253Z,97.67
2017-11-25T22:24:18.830Z,97.43
2017-11-25T22:26:46.380Z,97.65
2017-11-25T22:29:13.901Z,97.57
2017-11-25T22:31:41.454Z,97.72
2017-11-25T22:34:09.014Z,97.36
2017-11-25T22:36:36.597Z,97.21
2017-11-25T22:39:04.149Z,97.05
2017-11-25T22:41:31.666Z,96.66
2017-11-25T22:43:59.202Z,97.00
2017-11-25T22:46:26.738Z,97.23
2017-11-25T22:48:54.262Z,97.13
2017-11-25T22:51:22.020Z,97.37
2017-11-25T22:53:49.563Z,97.30
2017-11-25T22:56:17.077Z,97.33
2017-11-25T22:58:44.627Z,97.20
2017-11-25T23:01:12.147Z,97.17
2017-11-25T23:03:39.707Z,97.16
2017-11-25T23:06:11.246Z,97.08
2017-11-25T23:08:38.830Z,97.11
2017-11-25T23:11:06.376Z,97.12
2017-11-25T23:13:33.895Z,96.89
2017-11-25T23:16:01.466Z,97.33
2017-11-25T23:18:28.991Z,97.42
2017-11-25T23:20:56.503Z,97.33
2017-11-25T23:23:24.072Z,97.63
2017-11-25T23:25:51.585Z,97.30
2017-11-25T23:28:19.098Z,96.91
2017-11-25T23:30:46.634Z,96.86
2017-11-25T23:33:14.150Z,97.27
2017-11-25T23:35:41.714Z,97.54
2017-11-25T23:38:09.248Z,97.40
2017-11-25T23:40:36.790Z,97.15
2017-11-25T23:43:04.535Z,97.34
2017-11-25T23:45:32.054Z,97.43
2017-11-25T23:47:59.570Z,97.53
2017-11-25T23:50:27.105Z,97.52
2017-11-25T23:52:54.626Z,97.53
2017-11-25T23:55:22.164Z,98.14
2017-11-25T23:57:49.685Z,97.98
